sensor_id;sensor_type;location;lat;lon;timestamp;temperature;humidity
9329;DHT22;4703;48.748;19.142;2023-02-01T00:00:58;4.50;99.90
9329;DHT22;4703;48.748;19.142;2023-02-01T00:03:25;2.20;99.90
9329;DHT22;4703;48.748;19.142;2023-02-01T00:05:59;2.10;99.90
9329;DHT22;4703;48.748;19.142;2023-02-01T00:08:27;2.20;99.90
9329;DHT22;4703;48.748;19.142;2023-02-01T00:11:02;2.20;99.90
9329;DHT22;4703;48.748;19.142;2023-02-01T00:13:32;2.20;99.90
9329;DHT22;4703;48.748;19.142;2023-02-01T00:18:32;2.20;99.90
9329;DHT22;4703;48.748;19.142;2023-02-01T00:20:59;2.20;99.90
9329;DHT22;4703;48.748;19.142;2023-02-01T00:23:26;2.30;99.90
9329;DHT22;4703;48.748;19.142;2023-02-01T00:25:53;2.30;99.90
9329;DHT22;4703;48.748;19.142;2023-02-01T00:28:20;2.40;99.90
9329;DHT22;4703;48.748;19.142;2023-02-01T00:30:59;2.50;99.90
9329;DHT22;4703;48.748;19.142;2023-02-01T00:33:29;2.60;99.90
9329;DHT22;4703;48.748;19.142;2023-02-01T00:36:02;2.60;99.90
9329;DHT22;4703;48.748;19.142;2023-02-01T00:38:32;2.60;99.90
9329;DHT22;4703;48.748;19.142;2023-02-01T00:41:09;2.80;99.90
9329;DHT22;4703;48.748;19.142;2023-02-01T00:43:38;2.80;99.90
9329;DHT22;4703;48.748;19.142;2023-02-01T00:46:05;4.40;99.90
9329;DHT22;4703;48.748;19.142;2023-02-01T00:48:33;2.80;99.90
9329;DHT22;4703;48.748;19.142;2023-02-01T00:51:01;3.00;99.90
9329;DHT22;4703;48.748;19.142;2023-02-01T00:53:30;3.00;99.90
9329;DHT22;4703;48.748;19.142;2023-02-01T00:55:57;3.10;99.90
9329;DHT22;4703;48.748;19.142;2023-02-01T00:58:25;3.10;99.90
9329;DHT22;4703;48.748;19.142;2023-02-01T01:01:10;3.10;99.90
9329;DHT22;4703;48.748;19.142;2023-02-01T01:03:46;3.20;99.90
9329;DHT22;4703;48.748;19.142;2023-02-01T01:06:17;3.10;99.90
9329;DHT22;4703;48.748;19.142;2023-02-01T01:08:46;3.20;99.90
9329;DHT22;4703;48.748;19.142;2023-02-01T01:11:16;3.20;99.90
9329;DHT22;4703;48.748;19.142;2023-02-01T01:13:49;3.20;99.90
9329;DHT22;4703;48.748;19.142;2023-02-01T01:16:18;3.10;99.90
9329;DHT22;4703;48.748;19.142;2023-02-01T01:18:45;3.20;99.90
9329;DHT22;4703;48.748;19.142;2023-02-01T01:21:14;3.20;99.90
9329;DHT22;4703;48.748;19.142;2023-02-01T01:23:42;3.30;99.90
9329;DHT22;4703;48.748;19.142;2023-02-01T01:26:13;3.30;99.90
9329;DHT22;4703;48.748;19.142;2023-02-01T01:28:45;5.90;99.90
9329;DHT22;4703;48.748;19.142;2023-02-01T01:31:14;3.20;99.90
9329;DHT22;4703;48.748;19.142;2023-02-01T01:33:43;3.20;99.90
9329;DHT22;4703;48.748;19.142;2023-02-01T01:36:12;3.20;99.90
9329;DHT22;4703;48.748;19.142;2023-02-01T01:38:40;3.20;99.90
9329;DHT22;4703;48.748;19.142;2023-02-01T01:41:08;3.20;99.90
9329;DHT22;4703;48.748;19.142;2023-02-01T01:44:05;3.20;99.90
9329;DHT22;4703;48.748;19.142;2023-02-01T01:46:37;3.20;99.90
9329;DHT22;4703;48.748;19.142;2023-02-01T01:49:09;3.20;99.90
9329;DHT22;4703;48.748;19.142;2023-02-01T01:51:47;3.30;99.90
9329;DHT22;4703;48.748;19.142;2023-02-01T01:54:23;3.30;99.90
9329;DHT22;4703;48.748;19.142;2023-02-01T01:56:57;3.30;99.90
9329;DHT22;4703;48.748;19.142;2023-02-01T01:59:27;3.30;99.90
9329;DHT22;4703;48.748;19.142;2023-02-01T02:01:55;3.30;99.90
9329;DHT22;4703;48.748;19.142;2023-02-01T02:04:22;3.40;99.90
9329;DHT22;4703;48.748;19.142;2023-02-01T02:06:56;3.30;99.90
9329;DHT22;4703;48.748;19.142;2023-02-01T02:09:26;3.40;99.90
9329;DHT22;4703;48.748;19.142;2023-02-01T02:11:53;3.40;99.90
9329;DHT22;4703;48.748;19.142;2023-02-01T02:14:22;3.50;99.90
9329;DHT22;4703;48.748;19.142;2023-02-01T02:34:46;3.40;99.90
9329;DHT22;4703;48.748;19.142;2023-02-01T02:37:55;3.40;99.90
9329;DHT22;4703;48.748;19.142;2023-02-01T02:43:38;3.20;99.90
9329;DHT22;4703;48.748;19.142;2023-02-01T02:46:38;3.20;99.90
9329;DHT22;4703;48.748;19.142;2023-02-01T02:49:33;4.70;99.90
9329;DHT22;4703;48.748;19.142;2023-02-01T02:52:08;5.10;99.90
9329;DHT22;4703;48.748;19.142;2023-02-01T02:54:58;3.10;99.90
9329;DHT22;4703;48.748;19.142;2023-02-01T02:57:36;5.10;99.90
9329;DHT22;4703;48.748;19.142;2023-02-01T03:00:28;3.20;99.90
9329;DHT22;4703;48.748;19.142;2023-02-01T03:03:16;3.20;99.90
9329;DHT22;4703;48.748;19.142;2023-02-01T03:06:02;3.20;99.90
9329;DHT22;4703;48.748;19.142;2023-02-01T03:08:29;3.30;99.90
9329;DHT22;4703;48.748;19.142;2023-02-01T03:11:02;3.40;99.90
9329;DHT22;4703;48.748;19.142;2023-02-01T03:16:39;3.40;99.90
9329;DHT22;4703;48.748;19.142;2023-02-01T03:21:59;3.50;99.90
9329;DHT22;4703;48.748;19.142;2023-02-01T03:24:54;3.30;99.90
9329;DHT22;4703;48.748;19.142;2023-02-01T03:27:38;3.30;99.90
9329;DHT22;4703;48.748;19.142;2023-02-01T03:30:21;3.20;99.90
9329;DHT22;4703;48.748;19.142;2023-02-01T03:32:51;3.10;99.90
9329;DHT22;4703;48.748;19.142;2023-02-01T03:35:55;3.10;99.90
9329;DHT22;4703;48.748;19.142;2023-02-01T03:41:41;3.00;99.90
9329;DHT22;4703;48.748;19.142;2023-02-01T03:44:31;3.00;99.90
9329;DHT22;4703;48.748;19.142;2023-02-01T03:49:41;2.80;99.90
9329;DHT22;4703;48.748;19.142;2023-02-01T03:52:16;2.90;99.90
9329;DHT22;4703;48.748;19.142;2023-02-01T03:54:45;2.90;99.90
9329;DHT22;4703;48.748;19.142;2023-02-01T03:57:16;3.00;99.90
9329;DHT22;4703;48.748;19.142;2023-02-01T03:59:47;2.90;99.90
9329;DHT22;4703;48.748;19.142;2023-02-01T04:02:14;3.00;99.90
9329;DHT22;4703;48.748;19.142;2023-02-01T04:04:41;3.10;99.90
9329;DHT22;4703;48.748;19.142;2023-02-01T04:07:08;3.00;99.90
9329;DHT22;4703;48.748;19.142;2023-02-01T04:09:35;3.00;99.90
9329;DHT22;4703;48.748;19.142;2023-02-01T04:12:02;3.00;99.90
9329;DHT22;4703;48.748;19.142;2023-02-01T04:14:29;3.10;99.90
9329;DHT22;4703;48.748;19.142;2023-02-01T04:16:56;3.00;99.90
9329;DHT22;4703;48.748;19.142;2023-02-01T04:19:23;3.00;99.90
9329;DHT22;4703;48.748;19.142;2023-02-01T04:21:50;3.00;99.90
9329;DHT22;4703;48.748;19.142;2023-02-01T04:24:17;3.00;99.90
9329;DHT22;4703;48.748;19.142;2023-02-01T04:26:44;3.00;99.90
9329;DHT22;4703;48.748;19.142;2023-02-01T04:29:11;3.00;99.90
9329;DHT22;4703;48.748;19.142;2023-02-01T04:31:38;3.00;99.90
9329;DHT22;4703;48.748;19.142;2023-02-01T04:34:05;5.60;99.90
9329;DHT22;4703;48.748;19.142;2023-02-01T04:36:32;3.00;99.90
9329;DHT22;4703;48.748;19.142;2023-02-01T04:38:59;3.10;99.90
9329;DHT22;4703;48.748;19.142;2023-02-01T04:41:25;3.00;99.90
9329;DHT22;4703;48.748;19.142;2023-02-01T04:43:52;3.00;99.90
9329;DHT22;4703;48.748;19.142;2023-02-01T04:46:20;3.10;99.90
9329;DHT22;4703;48.748;19.142;2023-02-01T04:48:47;3.00;99.90
9329;DHT22;4703;48.748;19.142;2023-02-01T04:51:14;2.90;99.90
9329;DHT22;4703;48.748;19.142;2023-02-01T04:53:41;3.00;99.90
9329;DHT22;4703;48.748;19.142;2023-02-01T04:56:08;3.10;99.90
9329;DHT22;4703;48.748;19.142;2023-02-01T04:58:35;3.00;99.90
9329;DHT22;4703;48.748;19.142;2023-02-01T05:01:03;3.10;99.90
9329;DHT22;4703;48.748;19.142;2023-02-01T05:03:34;3.20;99.90
9329;DHT22;4703;48.748;19.142;2023-02-01T05:06:02;3.20;99.90
9329;DHT22;4703;48.748;19.142;2023-02-01T05:08:31;3.20;99.90
9329;DHT22;4703;48.748;19.142;2023-02-01T05:10:59;3.30;99.90
9329;DHT22;4703;48.748;19.142;2023-02-01T05:13:29;3.20;99.90
9329;DHT22;4703;48.748;19.142;2023-02-01T05:16:15;3.20;99.90
9329;DHT22;4703;48.748;19.142;2023-02-01T05:18:42;3.20;99.90
9329;DHT22;4703;48.748;19.142;2023-02-01T05:21:09;3.20;99.90
9329;DHT22;4703;48.748;19.142;2023-02-01T05:23:36;3.20;99.90
9329;DHT22;4703;48.748;19.142;2023-02-01T05:26:23;3.10;99.90
9329;DHT22;4703;48.748;19.142;2023-02-01T05:28:51;3.20;99.90
9329;DHT22;4703;48.748;19.142;2023-02-01T05:31:18;3.10;99.90
9329;DHT22;4703;48.748;19.142;2023-02-01T05:33:45;3.10;99.90
9329;DHT22;4703;48.748;19.142;2023-02-01T05:36:12;5.90;99.90
9329;DHT22;4703;48.748;19.142;2023-02-01T05:38:39;3.30;99.90
9329;DHT22;4703;48.748;19.142;2023-02-01T05:41:06;3.30;99.90
9329;DHT22;4703;48.748;19.142;2023-02-01T05:43:33;3.30;99.90
9329;DHT22;4703;48.748;19.142;2023-02-01T05:46:01;3.40;99.90
9329;DHT22;4703;48.748;19.142;2023-02-01T05:48:28;3.30;99.90
9329;DHT22;4703;48.748;19.142;2023-02-01T05:50:55;4.50;99.90
9329;DHT22;4703;48.748;19.142;2023-02-01T05:53:22;5.90;99.90
9329;DHT22;4703;48.748;19.142;2023-02-01T05:55:49;3.50;99.90
9329;DHT22;4703;48.748;19.142;2023-02-01T05:58:16;3.50;99.90
9329;DHT22;4703;48.748;19.142;2023-02-01T06:00:43;3.40;99.90
9329;DHT22;4703;48.748;19.142;2023-02-01T06:03:10;3.50;99.90
9329;DHT22;4703;48.748;19.142;2023-02-01T06:05:36;3.50;99.90
9329;DHT22;4703;48.748;19.142;2023-02-01T06:08:03;3.50;99.90
9329;DHT22;4703;48.748;19.142;2023-02-01T06:10:31;3.50;99.90
9329;DHT22;4703;48.748;19.142;2023-02-01T06:12:58;4.80;99.90
9329;DHT22;4703;48.748;19.142;2023-02-01T06:15:24;3.50;99.90
9329;DHT22;4703;48.748;19.142;2023-02-01T06:17:51;3.60;99.90
9329;DHT22;4703;48.748;19.142;2023-02-01T06:20:18;3.50;99.90
9329;DHT22;4703;48.748;19.142;2023-02-01T06:22:46;3.50;99.90
9329;DHT22;4703;48.748;19.142;2023-02-01T06:25:13;3.60;99.90
9329;DHT22;4703;48.748;19.142;2023-02-01T06:27:40;3.60;99.90
9329;DHT22;4703;48.748;19.142;2023-02-01T06:30:07;3.60;99.90
9329;DHT22;4703;48.748;19.142;2023-02-01T06:32:35;3.50;99.90
9329;DHT22;4703;48.748;19.142;2023-02-01T06:35:02;5.80;99.90
9329;DHT22;4703;48.748;19.142;2023-02-01T06:37:29;3.50;99.90
9329;DHT22;4703;48.748;19.142;2023-02-01T06:39:57;3.50;99.90
9329;DHT22;4703;48.748;19.142;2023-02-01T06:42:24;3.50;99.90
9329;DHT22;4703;48.748;19.142;2023-02-01T06:44:52;3.40;99.90
9329;DHT22;4703;48.748;19.142;2023-02-01T06:47:18;3.50;99.90
9329;DHT22;4703;48.748;19.142;2023-02-01T06:49:45;3.50;99.90
9329;DHT22;4703;48.748;19.142;2023-02-01T06:52:12;3.50;99.90
9329;DHT22;4703;48.748;19.142;2023-02-01T06:54:39;3.50;99.90
9329;DHT22;4703;48.748;19.142;2023-02-01T06:57:06;5.90;99.90
9329;DHT22;4703;48.748;19.142;2023-02-01T06:59:33;3.60;99.90
9329;DHT22;4703;48.748;19.142;2023-02-01T07:02:01;3.70;99.90
9329;DHT22;4703;48.748;19.142;2023-02-01T07:04:28;3.70;99.90
9329;DHT22;4703;48.748;19.142;2023-02-01T07:06:55;3.80;99.90
9329;DHT22;4703;48.748;19.142;2023-02-01T07:09:22;3.80;99.90
9329;DHT22;4703;48.748;19.142;2023-02-01T07:11:49;3.90;99.90
9329;DHT22;4703;48.748;19.142;2023-02-01T07:14:16;3.90;99.90
9329;DHT22;4703;48.748;19.142;2023-02-01T07:16:43;4.00;99.90
9329;DHT22;4703;48.748;19.142;2023-02-01T07:19:10;4.10;99.90
9329;DHT22;4703;48.748;19.142;2023-02-01T07:21:37;4.10;99.90
9329;DHT22;4703;48.748;19.142;2023-02-01T07:24:04;4.10;99.90
9329;DHT22;4703;48.748;19.142;2023-02-01T07:26:31;4.20;99.90
9329;DHT22;4703;48.748;19.142;2023-02-01T07:28:59;4.20;99.90
9329;DHT22;4703;48.748;19.142;2023-02-01T07:31:26;4.30;99.90
9329;DHT22;4703;48.748;19.142;2023-02-01T07:33:55;4.30;99.90
9329;DHT22;4703;48.748;19.142;2023-02-01T07:36:24;4.30;99.30
9329;DHT22;4703;48.748;19.142;2023-02-01T07:38:51;4.30;99.40
9329;DHT22;4703;48.748;19.142;2023-02-01T07:41:22;4.30;99.00
9329;DHT22;4703;48.748;19.142;2023-02-01T07:43:51;4.40;98.40
9329;DHT22;4703;48.748;19.142;2023-02-01T07:46:19;4.40;98.20
9329;DHT22;4703;48.748;19.142;2023-02-01T07:48:46;4.40;98.30
9329;DHT22;4703;48.748;19.142;2023-02-01T07:51:15;4.40;98.30
9329;DHT22;4703;48.748;19.142;2023-02-01T07:53:44;4.40;98.10
9329;DHT22;4703;48.748;19.142;2023-02-01T07:56:19;6.40;98.80
9329;DHT22;4703;48.748;19.142;2023-02-01T07:58:50;4.50;97.80
9329;DHT22;4703;48.748;19.142;2023-02-01T08:01:21;4.50;97.90
9329;DHT22;4703;48.748;19.142;2023-02-01T08:03:53;4.60;97.90
9329;DHT22;4703;48.748;19.142;2023-02-01T08:06:22;4.60;98.00
9329;DHT22;4703;48.748;19.142;2023-02-01T08:08:50;4.70;98.30
9329;DHT22;4703;48.748;19.142;2023-02-01T08:11:18;4.70;97.90
9329;DHT22;4703;48.748;19.142;2023-02-01T08:13:47;4.70;97.50
9329;DHT22;4703;48.748;19.142;2023-02-01T08:16:15;4.00;97.60
9329;DHT22;4703;48.748;19.142;2023-02-01T08:18:43;4.80;98.20
9329;DHT22;4703;48.748;19.142;2023-02-01T08:21:17;4.80;97.40
9329;DHT22;4703;48.748;19.142;2023-02-01T08:23:51;4.70;97.00
9329;DHT22;4703;48.748;19.142;2023-02-01T08:26:21;6.40;98.10
9329;DHT22;4703;48.748;19.142;2023-02-01T08:28:55;6.80;98.10
9329;DHT22;4703;48.748;19.142;2023-02-01T08:31:25;4.60;97.40
9329;DHT22;4703;48.748;19.142;2023-02-01T08:33:58;4.70;97.20
9329;DHT22;4703;48.748;19.142;2023-02-01T08:36:28;4.70;97.10
9329;DHT22;4703;48.748;19.142;2023-02-01T08:38:56;4.70;97.30
9329;DHT22;4703;48.748;19.142;2023-02-01T08:41:27;4.80;97.00
9329;DHT22;4703;48.748;19.142;2023-02-01T08:43:56;4.90;97.20
9329;DHT22;4703;48.748;19.142;2023-02-01T08:46:24;4.90;97.50
9329;DHT22;4703;48.748;19.142;2023-02-01T08:48:51;7.70;98.70
9329;DHT22;4703;48.748;19.142;2023-02-01T08:51:20;5.00;97.50
9329;DHT22;4703;48.748;19.142;2023-02-01T08:53:48;5.10;97.30
9329;DHT22;4703;48.748;19.142;2023-02-01T08:56:17;5.10;96.90
9329;DHT22;4703;48.748;19.142;2023-02-01T08:58:45;7.70;97.60
9329;DHT22;4703;48.748;19.142;2023-02-01T09:01:16;5.10;96.70
9329;DHT22;4703;48.748;19.142;2023-02-01T09:03:44;5.80;97.30
9329;DHT22;4703;48.748;19.142;2023-02-01T09:06:13;5.00;97.20
9329;DHT22;4703;48.748;19.142;2023-02-01T09:08:42;5.00;97.00
9329;DHT22;4703;48.748;19.142;2023-02-01T09:11:15;5.00;96.70
9329;DHT22;4703;48.748;19.142;2023-02-01T09:13:54;5.00;96.70
9329;DHT22;4703;48.748;19.142;2023-02-01T09:16:23;4.90;96.90
9329;DHT22;4703;48.748;19.142;2023-02-01T09:18:54;4.80;97.30
9329;DHT22;4703;48.748;19.142;2023-02-01T09:21:46;4.80;97.70
9329;DHT22;4703;48.748;19.142;2023-02-01T09:24:16;4.70;97.50
9329;DHT22;4703;48.748;19.142;2023-02-01T09:26:48;4.70;97.80
9329;DHT22;4703;48.748;19.142;2023-02-01T09:29:18;4.70;97.90
9329;DHT22;4703;48.748;19.142;2023-02-01T09:31:49;4.70;98.20
9329;DHT22;4703;48.748;19.142;2023-02-01T09:34:29;4.80;98.30
9329;DHT22;4703;48.748;19.142;2023-02-01T09:36:56;4.80;98.00
9329;DHT22;4703;48.748;19.142;2023-02-01T09:39:23;6.00;98.50
9329;DHT22;4703;48.748;19.142;2023-02-01T09:47:26;5.00;98.10
9329;DHT22;4703;48.748;19.142;2023-02-01T09:50:13;5.00;97.90
9329;DHT22;4703;48.748;19.142;2023-02-01T09:53:12;5.00;97.50
9329;DHT22;4703;48.748;19.142;2023-02-01T09:55:45;5.10;97.50
9329;DHT22;4703;48.748;19.142;2023-02-01T09:58:47;5.10;97.00
9329;DHT22;4703;48.748;19.142;2023-02-01T10:01:32;5.00;97.10
9329;DHT22;4703;48.748;19.142;2023-02-01T10:04:13;5.00;97.60
9329;DHT22;4703;48.748;19.142;2023-02-01T10:06:57;5.00;97.40
9329;DHT22;4703;48.748;19.142;2023-02-01T10:09:50;5.00;97.50
9329;DHT22;4703;48.748;19.142;2023-02-01T10:12:29;5.00;97.80
9329;DHT22;4703;48.748;19.142;2023-02-01T10:15:24;5.10;97.80
9329;DHT22;4703;48.748;19.142;2023-02-01T10:24:41;5.30;97.80
9329;DHT22;4703;48.748;19.142;2023-02-01T10:27:23;5.30;97.80
9329;DHT22;4703;48.748;19.142;2023-02-01T10:29:59;5.40;97.80
9329;DHT22;4703;48.748;19.142;2023-02-01T10:32:33;5.40;97.90
9329;DHT22;4703;48.748;19.142;2023-02-01T10:35:13;5.50;98.00
9329;DHT22;4703;48.748;19.142;2023-02-01T10:37:43;5.60;97.60
9329;DHT22;4703;48.748;19.142;2023-02-01T10:40:19;5.60;97.50
9329;DHT22;4703;48.748;19.142;2023-02-01T10:42:51;5.50;97.40
9329;DHT22;4703;48.748;19.142;2023-02-01T10:45:22;5.50;97.50
9329;DHT22;4703;48.748;19.142;2023-02-01T10:47:53;5.50;97.60
9329;DHT22;4703;48.748;19.142;2023-02-01T10:53:31;5.40;98.10
9329;DHT22;4703;48.748;19.142;2023-02-01T10:56:12;5.40;98.30
9329;DHT22;4703;48.748;19.142;2023-02-01T10:58:45;5.30;98.30
9329;DHT22;4703;48.748;19.142;2023-02-01T11:01:31;5.30;98.70
9329;DHT22;4703;48.748;19.142;2023-02-01T11:04:03;5.30;98.80
9329;DHT22;4703;48.748;19.142;2023-02-01T11:06:46;5.10;99.10
9329;DHT22;4703;48.748;19.142;2023-02-01T11:09:25;5.00;99.60
9329;DHT22;4703;48.748;19.142;2023-02-01T11:11:57;5.00;99.90
9329;DHT22;4703;48.748;19.142;2023-02-01T11:14:35;4.90;99.90
9329;DHT22;4703;48.748;19.142;2023-02-01T11:17:17;4.90;99.90
9329;DHT22;4703;48.748;19.142;2023-02-01T11:20:19;4.90;99.90
9329;DHT22;4703;48.748;19.142;2023-02-01T11:22:55;4.80;99.90
9329;DHT22;4703;48.748;19.142;2023-02-01T11:25:26;4.90;99.90
9329;DHT22;4703;48.748;19.142;2023-02-01T11:27:56;4.90;99.90
9329;DHT22;4703;48.748;19.142;2023-02-01T11:30:36;4.70;99.90
9329;DHT22;4703;48.748;19.142;2023-02-01T11:33:20;4.70;99.90
9329;DHT22;4703;48.748;19.142;2023-02-01T11:36:14;4.60;99.90
9329;DHT22;4703;48.748;19.142;2023-02-01T11:42:13;4.70;99.90
9329;DHT22;4703;48.748;19.142;2023-02-01T11:44:47;4.60;99.90
9329;DHT22;4703;48.748;19.142;2023-02-01T11:47:38;5.20;99.90
9329;DHT22;4703;48.748;19.142;2023-02-01T11:50:32;4.60;99.90
9329;DHT22;4703;48.748;19.142;2023-02-01T11:59:23;4.60;99.90
9329;DHT22;4703;48.748;19.142;2023-02-01T12:05:21;4.60;99.90
9329;DHT22;4703;48.748;19.142;2023-02-01T12:45:41;5.20;99.90
9329;DHT22;4703;48.748;19.142;2023-02-01T12:48:18;5.20;99.90
9329;DHT22;4703;48.748;19.142;2023-02-01T12:51:15;5.20;99.90
9329;DHT22;4703;48.748;19.142;2023-02-01T12:53:50;5.20;99.90
9329;DHT22;4703;48.748;19.142;2023-02-01T12:56:29;5.20;99.90
9329;DHT22;4703;48.748;19.142;2023-02-01T12:59:03;5.10;99.90
9329;DHT22;4703;48.748;19.142;2023-02-01T13:01:45;5.10;99.90
9329;DHT22;4703;48.748;19.142;2023-02-01T13:04:31;5.00;99.90
9329;DHT22;4703;48.748;19.142;2023-02-01T13:09:49;4.90;99.90
9329;DHT22;4703;48.748;19.142;2023-02-01T13:12:32;4.80;99.90
9329;DHT22;4703;48.748;19.142;2023-02-01T13:15:28;4.70;99.90
9329;DHT22;4703;48.748;19.142;2023-02-01T13:18:01;4.60;99.90
9329;DHT22;4703;48.748;19.142;2023-02-01T13:20:38;4.50;99.90
9329;DHT22;4703;48.748;19.142;2023-02-01T13:23:31;4.40;99.90
9329;DHT22;4703;48.748;19.142;2023-02-01T13:26:01;4.30;99.90
9329;DHT22;4703;48.748;19.142;2023-02-01T13:28:30;4.80;99.90
9329;DHT22;4703;48.748;19.142;2023-02-01T13:37:52;4.00;99.90
9329;DHT22;4703;48.748;19.142;2023-02-01T13:43:35;4.00;99.90
9329;DHT22;4703;48.748;19.142;2023-02-01T13:46:23;4.00;99.90
9329;DHT22;4703;48.748;19.142;2023-02-01T13:49:05;3.90;99.90
9329;DHT22;4703;48.748;19.142;2023-02-01T13:51:45;3.90;99.90
9329;DHT22;4703;48.748;19.142;2023-02-01T13:57:00;3.90;99.90
9329;DHT22;4703;48.748;19.142;2023-02-01T14:02:36;3.80;99.90
9329;DHT22;4703;48.748;19.142;2023-02-01T14:05:11;3.80;99.90
9329;DHT22;4703;48.748;19.142;2023-02-01T14:10:57;3.90;99.90
9329;DHT22;4703;48.748;19.142;2023-02-01T14:13:41;3.90;99.90
9329;DHT22;4703;48.748;19.142;2023-02-01T14:16:14;3.90;99.90
9329;DHT22;4703;48.748;19.142;2023-02-01T14:24:12;4.00;99.90
9329;DHT22;4703;48.748;19.142;2023-02-01T14:26:47;4.00;99.90
9329;DHT22;4703;48.748;19.142;2023-02-01T14:29:29;4.00;99.90
9329;DHT22;4703;48.748;19.142;2023-02-01T14:32:05;4.00;99.90
9329;DHT22;4703;48.748;19.142;2023-02-01T14:34:48;3.90;99.90
9329;DHT22;4703;48.748;19.142;2023-02-01T14:40:34;5.60;99.90
9329;DHT22;4703;48.748;19.142;2023-02-01T14:42:49;3.90;99.90
9329;DHT22;4703;48.748;19.142;2023-02-01T14:47:52;3.90;99.90
9329;DHT22;4703;48.748;19.142;2023-02-01T15:01:49;3.80;99.90
9329;DHT22;4703;48.748;19.142;2023-02-01T15:04:19;3.80;99.90
9329;DHT22;4703;48.748;19.142;2023-02-01T15:06:55;3.80;99.90
9329;DHT22;4703;48.748;19.142;2023-02-01T15:09:32;3.80;99.90
9329;DHT22;4703;48.748;19.142;2023-02-01T15:14:36;3.60;99.90
9329;DHT22;4703;48.748;19.142;2023-02-01T15:23:04;3.30;99.90
9329;DHT22;4703;48.748;19.142;2023-02-01T15:25:35;3.20;99.90
9329;DHT22;4703;48.748;19.142;2023-02-01T15:28:03;3.20;99.90
9329;DHT22;4703;48.748;19.142;2023-02-01T15:30:34;3.10;99.90
9329;DHT22;4703;48.748;19.142;2023-02-01T15:35:51;3.20;99.90
9329;DHT22;4703;48.748;19.142;2023-02-01T15:41:16;3.20;99.90
9329;DHT22;4703;48.748;19.142;2023-02-01T15:46:32;3.30;99.90
9329;DHT22;4703;48.748;19.142;2023-02-01T15:49:05;3.30;99.90
9329;DHT22;4703;48.748;19.142;2023-02-01T15:51:45;3.30;99.90
9329;DHT22;4703;48.748;19.142;2023-02-01T15:54:17;3.30;99.90
9329;DHT22;4703;48.748;19.142;2023-02-01T15:56:52;3.30;99.90
9329;DHT22;4703;48.748;19.142;2023-02-01T15:59:25;3.30;99.90
9329;DHT22;4703;48.748;19.142;2023-02-01T16:02:25;3.30;99.90
9329;DHT22;4703;48.748;19.142;2023-02-01T16:05:25;3.30;99.90
9329;DHT22;4703;48.748;19.142;2023-02-01T16:08:03;3.30;99.90
9329;DHT22;4703;48.748;19.142;2023-02-01T16:10:38;3.30;99.90
9329;DHT22;4703;48.748;19.142;2023-02-01T16:13:08;3.30;99.90
9329;DHT22;4703;48.748;19.142;2023-02-01T16:15:36;3.30;99.90
9329;DHT22;4703;48.748;19.142;2023-02-01T16:18:04;3.20;99.90
9329;DHT22;4703;48.748;19.142;2023-02-01T16:20:31;3.20;99.90
9329;DHT22;4703;48.748;19.142;2023-02-01T16:22:59;3.30;99.90
9329;DHT22;4703;48.748;19.142;2023-02-01T16:25:28;3.30;99.90
9329;DHT22;4703;48.748;19.142;2023-02-01T16:27:55;6.00;99.90
9329;DHT22;4703;48.748;19.142;2023-02-01T16:30:22;3.30;99.90
9329;DHT22;4703;48.748;19.142;2023-02-01T16:32:55;3.30;99.90
9329;DHT22;4703;48.748;19.142;2023-02-01T16:35:28;3.20;99.90
9329;DHT22;4703;48.748;19.142;2023-02-01T16:37:59;3.30;99.90
9329;DHT22;4703;48.748;19.142;2023-02-01T16:40:26;5.90;99.90
9329;DHT22;4703;48.748;19.142;2023-02-01T16:42:53;3.30;99.90
9329;DHT22;4703;48.748;19.142;2023-02-01T16:45:23;3.30;99.90
9329;DHT22;4703;48.748;19.142;2023-02-01T16:47:54;3.30;99.90
9329;DHT22;4703;48.748;19.142;2023-02-01T16:50:23;3.30;99.90
9329;DHT22;4703;48.748;19.142;2023-02-01T16:52:52;3.40;99.90
9329;DHT22;4703;48.748;19.142;2023-02-01T16:55:21;3.40;99.90
9329;DHT22;4703;48.748;19.142;2023-02-01T16:57:49;3.40;99.90
9329;DHT22;4703;48.748;19.142;2023-02-01T17:00:16;3.60;99.90
9329;DHT22;4703;48.748;19.142;2023-02-01T17:02:51;3.50;99.90
9329;DHT22;4703;48.748;19.142;2023-02-01T17:05:18;3.50;99.90
9329;DHT22;4703;48.748;19.142;2023-02-01T17:07:46;3.50;99.90
9329;DHT22;4703;48.748;19.142;2023-02-01T17:10:25;3.60;99.90
9329;DHT22;4703;48.748;19.142;2023-02-01T17:12:59;3.50;99.90
9329;DHT22;4703;48.748;19.142;2023-02-01T17:15:31;3.60;99.90
9329;DHT22;4703;48.748;19.142;2023-02-01T17:18:03;6.30;99.90
9329;DHT22;4703;48.748;19.142;2023-02-01T17:20:31;3.60;99.90
9329;DHT22;4703;48.748;19.142;2023-02-01T17:22:59;3.60;99.90
9329;DHT22;4703;48.748;19.142;2023-02-01T17:25:29;3.60;99.90
9329;DHT22;4703;48.748;19.142;2023-02-01T17:27:57;3.60;99.90
9329;DHT22;4703;48.748;19.142;2023-02-01T17:30:25;3.60;99.90
9329;DHT22;4703;48.748;19.142;2023-02-01T17:32:52;3.60;99.90
9329;DHT22;4703;48.748;19.142;2023-02-01T17:35:23;3.60;99.90
9329;DHT22;4703;48.748;19.142;2023-02-01T17:37:52;3.60;99.90
9329;DHT22;4703;48.748;19.142;2023-02-01T17:40:19;3.60;99.90
9329;DHT22;4703;48.748;19.142;2023-02-01T17:42:47;3.60;99.90
9329;DHT22;4703;48.748;19.142;2023-02-01T17:45:46;3.60;99.90
9329;DHT22;4703;48.748;19.142;2023-02-01T17:48:31;3.60;99.90
9329;DHT22;4703;48.748;19.142;2023-02-01T17:51:00;3.60;99.90
9329;DHT22;4703;48.748;19.142;2023-02-01T17:53:28;5.80;99.90
9329;DHT22;4703;48.748;19.142;2023-02-01T17:55:56;4.70;99.90
9329;DHT22;4703;48.748;19.142;2023-02-01T17:58:27;3.60;99.90
9329;DHT22;4703;48.748;19.142;2023-02-01T18:00:56;3.70;99.90
9329;DHT22;4703;48.748;19.142;2023-02-01T18:03:26;3.60;99.90
9329;DHT22;4703;48.748;19.142;2023-02-01T18:05:56;3.70;99.90
9329;DHT22;4703;48.748;19.142;2023-02-01T18:08:25;3.70;99.90
9329;DHT22;4703;48.748;19.142;2023-02-01T18:10:55;3.60;99.90
9329;DHT22;4703;48.748;19.142;2023-02-01T18:13:27;3.70;99.90
9329;DHT22;4703;48.748;19.142;2023-02-01T18:15:55;3.70;99.90
9329;DHT22;4703;48.748;19.142;2023-02-01T18:18:22;5.30;99.90
9329;DHT22;4703;48.748;19.142;2023-02-01T18:20:49;3.70;99.90
9329;DHT22;4703;48.748;19.142;2023-02-01T18:23:21;3.70;99.90
9329;DHT22;4703;48.748;19.142;2023-02-01T18:25:51;3.70;99.90
9329;DHT22;4703;48.748;19.142;2023-02-01T18:28:18;3.80;99.90
9329;DHT22;4703;48.748;19.142;2023-02-01T18:30:47;3.80;99.90
9329;DHT22;4703;48.748;19.142;2023-02-01T18:33:17;3.80;99.90
9329;DHT22;4703;48.748;19.142;2023-02-01T18:35:45;3.90;99.90
9329;DHT22;4703;48.748;19.142;2023-02-01T18:38:13;3.90;99.90
9329;DHT22;4703;48.748;19.142;2023-02-01T18:40:51;4.00;99.90
9329;DHT22;4703;48.748;19.142;2023-02-01T18:43:19;4.00;99.90
9329;DHT22;4703;48.748;19.142;2023-02-01T18:45:48;4.00;99.90
9329;DHT22;4703;48.748;19.142;2023-02-01T18:48:17;4.10;99.90
9329;DHT22;4703;48.748;19.142;2023-02-01T18:50:45;4.20;99.90
9329;DHT22;4703;48.748;19.142;2023-02-01T18:53:16;4.10;99.90
9329;DHT22;4703;48.748;19.142;2023-02-01T18:55:47;4.20;99.90
9329;DHT22;4703;48.748;19.142;2023-02-01T18:58:15;4.10;99.90
9329;DHT22;4703;48.748;19.142;2023-02-01T19:00:44;4.20;99.90
9329;DHT22;4703;48.748;19.142;2023-02-01T19:03:13;7.40;99.90
9329;DHT22;4703;48.748;19.142;2023-02-01T19:05:41;6.30;99.90
9329;DHT22;4703;48.748;19.142;2023-02-01T19:08:08;4.10;99.90
9329;DHT22;4703;48.748;19.142;2023-02-01T19:10:36;4.30;99.90
9329;DHT22;4703;48.748;19.142;2023-02-01T19:13:04;5.90;99.90
9329;DHT22;4703;48.748;19.142;2023-02-01T19:15:32;6.60;99.90
9329;DHT22;4703;48.748;19.142;2023-02-01T19:18:01;4.10;99.90